Time;durP1;ratioP1;P1;durP2;ratioP2;P2;SDS_P1;SDS_P2;PMS_P1;PMS_P2;Temp;Humidity;BMP_temperature;BMP_pressure;BME280_temperature;BME280_humidity;BME280_pressure;Samples;Min_cycle;Max_cycle;Signal;HPM_P1;HPM_P2
2022/07/08 00:00:56;;;;;;;1.98;0.60;;;21.20;99.90;;;;;;1914362;74;21136;-76
2022/07/08 00:03:48;;;;;;;1.12;0.42;;;21.20;99.90;;;;;;1922629;74;21154;-76
2022/07/08 00:06:39;;;;;;;1.30;0.47;;;21.20;99.90;;;;;;1907804;74;21179;-76
2022/07/08 00:09:32;;;;;;;1.95;0.50;;;21.20;99.90;;;;;;1914989;74;21117;-75
2022/07/08 00:12:23;;;;;;;1.65;0.50;;;21.20;99.90;;;;;;1898262;74;21120;-82
2022/07/08 00:15:21;;;;;;;1.65;0.70;;;21.20;99.90;;;;;;1897345;75;21175;-94
2022/07/08 00:18:18;;;;;;;1.75;0.57;;;21.10;99.90;;;;;;1895870;76;21105;-95
2022/07/08 00:21:22;;;;;;;0.72;0.50;;;21.10;99.90;;;;;;1895388;76;21122;-95
2022/07/08 00:24:20;;;;;;;1.20;0.70;;;21.00;99.90;;;;;;1895835;76;21086;-94
2022/07/08 00:27:16;;;;;;;1.90;0.60;;;21.00;99.90;;;;;;1896154;76;21062;-96
2022/07/08 00:30:15;;;;;;;2.60;0.45;;;21.00;99.90;;;;;;1895507;76;21082;-95
2022/07/08 00:33:09;;;;;;;1.27;0.50;;;21.00;99.90;;;;;;1895692;76;21119;-95
2022/07/08 00:36:11;;;;;;;0.55;0.55;;;20.90;99.90;;;;;;1895557;76;21621;-94
2022/07/08 00:39:14;;;;;;;1.45;0.62;;;20.80;99.90;;;;;;1895603;76;21054;-93
2022/07/08 00:42:14;;;;;;;0.50;0.50;;;20.80;99.90;;;;;;1895530;76;21050;-95
2022/07/08 00:45:08;;;;;;;1.30;0.50;;;20.70;99.90;;;;;;1895634;76;21138;-94
2022/07/08 00:48:24;;;;;;;1.27;0.50;;;20.70;99.90;;;;;;1895805;76;21108;-95
2022/07/08 00:51:24;;;;;;;1.52;0.60;;;20.70;99.90;;;;;;1896125;76;21114;-96
2022/07/08 00:54:21;;;;;;;1.85;0.62;;;20.60;99.90;;;;;;1895537;76;21124;-95
2022/07/08 00:57:21;;;;;;;3.47;0.70;;;20.60;99.90;;;;;;1896069;76;21113;-96
2022/07/08 01:00:19;;;;;;;0.90;0.55;;;20.60;99.90;;;;;;1896046;76;21054;-95
2022/07/08 01:03:18;;;;;;;0.75;0.50;;;20.60;99.90;;;;;;1895765;76;21089;-95
2022/07/08 01:06:32;;;;;;;1.00;0.55;;;20.60;99.90;;;;;;1896021;76;21062;-96
2022/07/08 01:09:31;;;;;;;1.77;0.70;;;20.60;99.90;;;;;;1895715;76;21106;-96
2022/07/08 01:12:24;;;;;;;3.02;0.88;;;20.50;99.90;;;;;;1895476;76;21252;-94
2022/07/08 01:15:28;;;;;;;0.78;0.45;;;20.60;99.90;;;;;;1895719;76;21062;-95
2022/07/08 01:18:30;;;;;;;1.62;0.50;;;20.50;99.90;;;;;;1895370;76;21062;-95
2022/07/08 01:21:34;;;;;;;3.20;0.70;;;20.60;99.90;;;;;;1833430;77;21062;-95
2022/07/08 01:24:41;;;;;;;1.27;0.60;;;20.40;99.90;;;;;;1902655;74;21073;-94
2022/07/08 01:27:40;;;;;;;1.00;0.45;;;20.30;99.90;;;;;;1861428;74;21100;-96
2022/07/08 01:30:46;;;;;;;2.37;0.50;;;20.30;99.90;;;;;;1859601;77;21171;-96
2022/07/08 01:33:39;;;;;;;0.75;0.50;;;20.20;99.90;;;;;;1859614;77;21524;-94
2022/07/08 01:36:34;;;;;;;3.58;0.85;;;20.20;99.90;;;;;;1902159;75;21141;-95
2022/07/08 01:39:34;;;;;;;1.00;0.60;;;20.20;99.90;;;;;;1859749;77;21062;-95
2022/07/08 01:42:26;;;;;;;1.50;0.50;;;20.10;99.90;;;;;;1859703;77;21085;-94
2022/07/08 01:45:19;;;;;;;1.15;0.62;;;20.00;99.90;;;;;;1859226;77;21079;-94
2022/07/08 01:48:16;;;;;;;0.60;0.60;;;20.10;99.90;;;;;;1859336;77;21070;-94
2022/07/08 01:51:13;;;;;;;0.70;0.60;;;20.00;99.90;;;;;;1859500;77;21057;-95
2022/07/08 01:54:06;;;;;;;1.72;0.60;;;20.00;99.90;;;;;;1901358;75;21062;-94
2022/07/08 01:57:14;;;;;;;1.30;0.90;;;20.00;99.90;;;;;;1859168;77;21485;-93
2022/07/08 02:00:11;;;;;;;0.98;0.60;;;20.00;99.90;;;;;;1861214;75;21131;-94
2022/07/08 02:03:06;;;;;;;2.00;0.60;;;20.00;99.90;;;;;;1861353;74;21207;-95
2022/07/08 02:05:59;;;;;;;1.82;0.65;;;20.00;99.90;;;;;;1901491;75;21127;-94
2022/07/08 02:08:53;;;;;;;3.12;0.88;;;20.00;99.90;;;;;;1858053;77;21102;-95
2022/07/08 02:15:11;;;;;;;2.12;0.60;;;20.00;99.90;;;;;;1933455;74;21093;-95
2022/07/08 02:18:06;;;;;;;2.67;0.45;;;19.90;99.90;;;;;;1933660;74;21091;-95
2022/07/08 02:21:00;;;;;;;1.25;0.50;;;19.90;99.90;;;;;;1933430;74;21051;-94
2022/07/08 02:23:54;;;;;;;2.62;0.68;;;19.80;99.90;;;;;;1933100;74;21144;-95
2022/07/08 02:26:49;;;;;;;1.02;0.60;;;19.80;99.90;;;;;;1929383;74;21543;-95
2022/07/08 02:29:47;;;;;;;1.57;0.70;;;19.80;99.90;;;;;;1926610;74;21130;-95
2022/07/08 02:32:39;;;;;;;2.02;0.53;;;19.80;99.90;;;;;;1926570;74;21087;-96
2022/07/08 02:35:38;;;;;;;1.62;0.70;;;19.70;99.90;;;;;;1926242;74;21058;-95
2022/07/08 02:38:34;;;;;;;2.05;0.80;;;19.70;99.90;;;;;;1927041;74;21191;-95
2022/07/08 02:41:38;;;;;;;2.17;0.93;;;19.70;99.90;;;;;;1926824;74;21098;-94
2022/07/08 02:44:33;;;;;;;2.17;0.50;;;19.60;99.90;;;;;;1927033;74;21371;-94
2022/07/08 02:47:26;;;;;;;1.05;0.57;;;19.70;99.90;;;;;;1927056;74;21125;-94
2022/07/08 02:50:17;;;;;;;1.50;0.70;;;19.60;99.90;;;;;;1926939;74;21062;-94
2022/07/08 02:53:19;;;;;;;2.17;0.62;;;19.60;99.90;;;;;;1927174;74;21050;-96
2022/07/08 02:56:11;;;;;;;2.27;0.55;;;19.60;99.90;;;;;;1926725;74;21097;-94
2022/07/08 02:59:07;;;;;;;1.65;0.70;;;19.60;99.90;;;;;;1926131;74;21140;-95
2022/07/08 03:02:05;;;;;;;1.57;0.82;;;19.50;99.90;;;;;;1926325;74;21050;-95
2022/07/08 03:05:02;;;;;;;1.65;0.60;;;19.40;99.90;;;;;;1927162;71;21086;-94
2022/07/08 03:07:56;;;;;;;0.80;0.70;;;19.30;99.90;;;;;;1928724;74;21112;-95
2022/07/08 03:10:50;;;;;;;1.30;0.60;;;19.40;99.90;;;;;;1926669;74;21094;-94
2022/07/08 03:13:52;;;;;;;2.35;0.53;;;19.40;99.90;;;;;;1926809;74;21067;-94
2022/07/08 03:16:44;;;;;;;3.65;0.60;;;19.20;99.90;;;;;;1926862;74;21142;-94
2022/07/08 03:19:40;;;;;;;0.90;0.60;;;19.20;99.90;;;;;;1926672;74;21105;-94
2022/07/08 03:22:32;;;;;;;1.95;0.70;;;19.20;99.90;;;;;;1927036;74;21050;-94
2022/07/08 03:25:24;;;;;;;1.30;0.60;;;19.10;99.90;;;;;;1927327;74;21097;-95
2022/07/08 03:28:17;;;;;;;1.35;0.60;;;19.10;99.90;;;;;;1919195;74;21146;-95
2022/07/08 03:31:12;;;;;;;1.95;0.75;;;19.00;99.90;;;;;;1916823;75;21110;-95
2022/07/08 03:34:07;;;;;;;1.80;0.60;;;19.00;99.90;;;;;;1916691;75;21110;-94
2022/07/08 03:37:00;;;;;;;1.85;0.62;;;18.90;99.90;;;;;;1916679;75;21121;-95
2022/07/08 03:39:53;;;;;;;1.07;0.60;;;18.90;99.90;;;;;;1916558;75;21145;-94
2022/07/08 03:42:51;;;;;;;1.27;0.50;;;18.90;99.90;;;;;;1916755;75;21209;-95
2022/07/08 03:46:03;;;;;;;4.33;0.70;;;18.80;99.90;;;;;;1917995;73;21090;-95
2022/07/08 03:49:02;;;;;;;1.80;0.90;;;18.70;99.90;;;;;;1918753;74;21097;-94
2022/07/08 03:51:54;;;;;;;2.02;0.80;;;18.70;99.90;;;;;;1917215;75;21059;-96
2022/07/08 03:54:48;;;;;;;2.02;1.02;;;18.70;99.90;;;;;;1917285;75;21164;-94
2022/07/08 03:57:53;;;;;;;1.92;0.53;;;18.70;99.90;;;;;;1917296;75;21143;-94
2022/07/08 04:00:53;;;;;;;1.35;0.70;;;18.70;99.90;;;;;;1917493;75;21130;-95
2022/07/08 04:03:46;;;;;;;1.02;0.62;;;18.70;99.90;;;;;;1917382;75;21055;-95
2022/07/08 04:06:40;;;;;;;1.70;0.72;;;18.60;99.90;;;;;;1917237;75;21063;-96
2022/07/08 04:09:33;;;;;;;2.30;0.80;;;18.60;99.90;;;;;;1916450;75;21063;-94
2022/07/08 04:12:31;;;;;;;3.20;0.80;;;18.60;99.90;;;;;;1916845;75;21102;-95
2022/07/08 04:15:25;;;;;;;1.47;0.70;;;18.50;99.90;;;;;;1916687;75;21154;-94
2022/07/08 04:18:21;;;;;;;2.52;0.88;;;18.50;99.90;;;;;;1904458;75;21093;-96
2022/07/08 04:21:22;;;;;;;1.05;0.55;;;18.50;99.90;;;;;;1916767;75;21059;-95
2022/07/08 04:24:17;;;;;;;2.35;0.65;;;18.40;99.90;;;;;;1917177;75;21109;-94
2022/07/08 04:27:12;;;;;;;1.10;0.70;;;18.40;99.90;;;;;;1917811;75;21074;-94
2022/07/08 04:30:08;;;;;;;1.45;0.68;;;18.40;99.90;;;;;;1917055;75;21106;-94
2022/07/08 04:33:00;;;;;;;1.12;0.47;;;18.30;99.90;;;;;;1916494;75;21217;-96
2022/07/08 04:35:52;;;;;;;0.70;0.68;;;18.40;99.90;;;;;;1904192;75;21064;-94
2022/07/08 04:38:44;;;;;;;1.15;0.68;;;18.40;99.90;;;;;;1904526;75;21063;-95
2022/07/08 04:41:37;;;;;;;1.50;0.62;;;18.40;99.90;;;;;;1904357;75;21051;-93
2022/07/08 04:44:30;;;;;;;1.20;0.88;;;18.60;99.90;;;;;;1904191;75;21083;-95
2022/07/08 04:47:22;;;;;;;1.45;0.62;;;18.70;99.90;;;;;;1916411;75;21054;-94
2022/07/08 04:50:15;;;;;;;1.37;0.70;;;18.70;99.90;;;;;;1904266;75;21064;-94
2022/07/08 04:53:06;;;;;;;0.53;0.50;;;18.70;99.90;;;;;;1904137;75;21110;-93
2022/07/08 04:55:59;;;;;;;1.02;0.65;;;18.70;99.90;;;;;;1907217;74;21087;-96
2022/07/08 04:58:52;;;;;;;1.37;0.70;;;18.60;99.90;;;;;;1905299;75;21499;-96
2022/07/08 05:01:45;;;;;;;0.82;0.60;;;18.50;99.90;;;;;;1903954;75;21052;-96
2022/07/08 05:04:37;;;;;;;0.72;0.50;;;18.60;99.90;;;;;;1904447;75;21170;-95
2022/07/08 05:07:29;;;;;;;4.08;0.60;;;18.70;99.90;;;;;;1903612;75;21095;-94
2022/07/08 05:10:24;;;;;;;1.35;0.60;;;18.90;99.90;;;;;;1903668;75;21048;-95
2022/07/08 05:13:17;;;;;;;1.67;0.60;;;19.00;99.90;;;;;;1904033;75;21072;-95
2022/07/08 05:16:11;;;;;;;1.72;0.70;;;19.00;99.90;;;;;;1904177;75;21059;-94
2022/07/08 05:19:04;;;;;;;1.77;0.85;;;19.10;99.90;;;;;;1903826;75;21115;-93
2022/07/08 05:21:56;;;;;;;1.27;0.50;;;19.10;99.90;;;;;;1903808;75;21095;-93
2022/07/08 05:24:49;;;;;;;1.07;0.60;;;19.00;99.90;;;;;;1904256;75;21063;-93
2022/07/08 05:27:42;;;;;;;1.50;0.70;;;18.90;99.90;;;;;;1904081;75;21244;-93
2022/07/08 05:30:35;;;;;;;1.20;0.60;;;18.90;99.90;;;;;;1925873;74;21073;-94
2022/07/08 05:33:27;;;;;;;1.22;0.65;;;19.00;99.90;;;;;;1929000;71;21047;-92
2022/07/08 05:36:21;;;;;;;1.85;0.70;;;18.90;99.90;;;;;;1926556;74;21251;-94
2022/07/08 05:39:15;;;;;;;1.20;0.70;;;19.00;99.90;;;;;;1926147;74;21047;-94
2022/07/08 05:42:08;;;;;;;1.55;0.50;;;19.00;99.90;;;;;;1914100;74;21060;-75
2022/07/08 05:44:59;;;;;;;2.70;0.93;;;19.00;99.90;;;;;;1898553;74;21123;-74
2022/07/08 05:47:51;;;;;;;1.20;0.70;;;19.00;99.90;;;;;;1899208;74;21162;-75
2022/07/08 05:50:43;;;;;;;0.95;0.78;;;18.90;99.90;;;;;;1906319;74;21160;-75
2022/07/08 05:53:35;;;;;;;2.75;0.72;;;18.90;99.90;;;;;;1901050;74;21166;-75
2022/07/08 05:56:26;;;;;;;2.35;0.80;;;19.00;99.90;;;;;;1914774;74;21126;-74
2022/07/08 05:59:19;;;;;;;1.17;0.60;;;19.10;99.90;;;;;;1899673;74;21122;-75
2022/07/08 06:02:10;;;;;;;1.47;0.72;;;19.10;99.90;;;;;;1913858;74;21169;-75
2022/07/08 06:05:02;;;;;;;0.80;0.70;;;19.10;99.90;;;;;;1905930;74;21097;-74
2022/07/08 06:08:03;;;;;;;1.20;0.80;;;19.20;99.90;;;;;;1874639;76;21461;-77
2022/07/08 06:10:58;;;;;;;1.67;0.98;;;19.20;99.90;;;;;;1905892;74;21139;-77
2022/07/08 06:13:50;;;;;;;1.15;0.90;;;19.20;99.90;;;;;;1900280;74;21097;-77
2022/07/08 06:16:41;;;;;;;1.80;1.00;;;19.20;99.90;;;;;;1902037;74;21275;-76
2022/07/08 06:19:33;;;;;;;1.37;1.00;;;19.20;99.90;;;;;;1906167;73;21177;-77
2022/07/08 06:22:24;;;;;;;1.60;1.05;;;19.20;99.90;;;;;;1914935;74;21592;-76
2022/07/08 06:25:16;;;;;;;1.02;0.80;;;19.10;99.90;;;;;;1896621;74;21195;-76
2022/07/08 06:28:07;;;;;;;1.52;1.00;;;19.00;99.90;;;;;;1905901;74;21074;-77
2022/07/08 06:30:59;;;;;;;2.90;1.00;;;19.10;99.90;;;;;;1913421;74;21129;-76
2022/07/08 06:33:56;;;;;;;1.85;0.82;;;19.00;99.90;;;;;;1918801;74;21098;-77
2022/07/08 06:36:49;;;;;;;1.22;0.90;;;19.10;99.90;;;;;;1921869;74;21168;-77
2022/07/08 06:39:41;;;;;;;1.40;0.90;;;19.00;99.90;;;;;;1922227;74;21164;-77
2022/07/08 06:42:32;;;;;;;0.95;0.80;;;18.90;99.90;;;;;;1916858;74;21046;-76
2022/07/08 06:45:25;;;;;;;2.08;1.00;;;18.90;99.90;;;;;;1912168;74;21128;-78
2022/07/08 06:48:16;;;;;;;3.17;1.30;;;19.00;99.90;;;;;;1925480;74;21176;-78
2022/07/08 06:51:08;;;;;;;1.70;0.80;;;18.90;99.90;;;;;;1901036;74;21552;-78
2022/07/08 06:57:09;;;;;;;0.90;0.90;;;18.80;99.90;;;;;;1916739;74;21492;-77
2022/07/08 07:00:01;;;;;;;1.85;0.80;;;18.80;99.90;;;;;;1911360;74;21128;-77
2022/07/08 07:02:55;;;;;;;1.05;0.90;;;18.80;99.90;;;;;;1910299;74;21191;-76
2022/07/08 07:05:46;;;;;;;3.25;1.00;;;18.80;99.90;;;;;;1911094;74;21535;-76
2022/07/08 07:08:38;;;;;;;1.87;1.27;;;18.60;99.90;;;;;;1913733;74;21109;-76
2022/07/08 07:11:29;;;;;;;2.45;0.90;;;18.70;99.90;;;;;;1913286;74;21129;-76
2022/07/08 07:14:20;;;;;;;2.95;0.93;;;18.70;99.90;;;;;;1910786;74;21110;-77
2022/07/08 07:17:12;;;;;;;3.92;1.00;;;18.60;99.90;;;;;;1930825;74;21172;-76
2022/07/08 07:20:03;;;;;;;1.92;0.80;;;18.60;99.90;;;;;;1932840;74;21200;-77
2022/07/08 07:22:55;;;;;;;1.45;0.90;;;18.70;99.90;;;;;;1899609;75;21220;-77
2022/07/08 07:25:46;;;;;;;2.98;0.98;;;18.80;99.90;;;;;;1899638;74;21149;-78
2022/07/08 07:28:38;;;;;;;2.45;0.90;;;18.70;99.90;;;;;;1921944;74;21145;-77
2022/07/08 07:31:30;;;;;;;1.47;1.00;;;18.70;99.90;;;;;;1889969;75;21083;-81
2022/07/08 07:34:22;;;;;;;3.45;1.02;;;18.70;99.90;;;;;;1900613;75;21311;-81
2022/07/08 07:39:54;;;;;;;1.77;1.00;;;18.70;99.90;;;;;;1948743;72;22114;-83
2022/07/08 07:42:45;;;;;;;3.95;1.10;;;18.90;99.90;;;;;;1917665;75;21102;-85
2022/07/08 07:45:36;;;;;;;0.78;0.78;;;19.00;99.90;;;;;;1932789;73;21507;-84
2022/07/08 07:48:28;;;;;;;2.85;1.32;;;19.10;99.90;;;;;;1918506;73;21123;-85
2022/07/08 07:51:21;;;;;;;3.00;1.35;;;19.30;99.90;;;;;;1917246;75;21099;-84
2022/07/08 07:54:12;;;;;;;4.67;1.25;;;19.40;99.90;;;;;;1917296;73;21062;-85
2022/07/08 07:57:05;;;;;;;2.10;1.05;;;19.30;99.90;;;;;;1924488;73;21122;-84
2022/07/08 07:59:56;;;;;;;3.30;0.90;;;19.50;99.90;;;;;;1917264;75;21099;-85
2022/07/08 08:02:48;;;;;;;1.70;0.98;;;19.60;99.90;;;;;;1916925;75;21118;-85
2022/07/08 08:05:42;;;;;;;3.25;1.12;;;19.60;99.90;;;;;;1917294;75;21083;-86
2022/07/08 08:08:33;;;;;;;2.72;1.10;;;19.70;99.90;;;;;;1936701;73;21094;-86
2022/07/08 08:11:25;;;;;;;1.12;0.90;;;19.90;99.90;;;;;;1937915;73;21062;-86
2022/07/08 08:14:17;;;;;;;2.22;1.27;;;20.00;99.90;;;;;;1917554;75;21106;-86
2022/07/08 08:17:08;;;;;;;1.27;1.00;;;20.10;99.90;;;;;;1916714;75;21167;-83
2022/07/08 08:20:00;;;;;;;3.80;1.20;;;20.20;99.90;;;;;;1916597;73;21740;-84
2022/07/08 08:22:52;;;;;;;1.80;1.10;;;20.20;99.90;;;;;;1918193;73;21127;-84
2022/07/08 08:25:45;;;;;;;3.12;1.17;;;20.30;99.90;;;;;;1917225;74;21063;-84
2022/07/08 08:28:36;;;;;;;1.77;1.00;;;20.40;99.90;;;;;;1917372;75;21117;-84
2022/07/08 08:31:28;;;;;;;2.80;1.30;;;20.60;99.90;;;;;;1916567;75;21225;-84
2022/07/08 08:34:20;;;;;;;4.53;1.45;;;20.70;99.90;;;;;;1916450;75;21586;-83
2022/07/08 08:37:12;;;;;;;2.08;1.15;;;20.80;99.90;;;;;;1917231;73;21169;-86
2022/07/08 08:42:45;;;;;;;2.85;1.10;;;21.00;99.90;;;;;;1955404;72;22203;-83
2022/07/08 08:45:37;;;;;;;2.70;1.15;;;21.10;99.90;;;;;;1917597;75;21166;-85
2022/07/08 08:48:30;;;;;;;4.53;1.07;;;21.20;99.90;;;;;;1917228;75;21121;-85
2022/07/08 08:51:23;;;;;;;2.00;1.10;;;21.40;99.90;;;;;;1928168;73;21106;-83
2022/07/08 08:54:17;;;;;;;2.35;0.98;;;21.40;99.90;;;;;;1918112;75;21706;-93
2022/07/08 08:57:12;;;;;;;2.80;0.90;;;21.60;99.90;;;;;;1918862;75;21144;-92
2022/07/08 09:00:08;;;;;;;3.45;1.30;;;21.60;99.90;;;;;;1926701;73;21173;-93
2022/07/08 09:03:02;;;;;;;2.10;1.00;;;21.70;99.90;;;;;;1918870;75;21049;-93
2022/07/08 09:06:03;;;;;;;1.72;1.00;;;21.80;99.90;;;;;;1922444;74;21066;-94
2022/07/08 09:08:56;;;;;;;1.10;1.00;;;21.70;99.90;;;;;;1920059;75;21123;-94
2022/07/08 09:11:52;;;;;;;2.67;0.88;;;21.80;99.90;;;;;;1881856;76;21175;-95
2022/07/08 09:15:01;;;;;;;3.33;0.90;;;22.00;99.90;;;;;;1918754;75;21094;-95
2022/07/08 09:17:58;;;;;;;1.95;1.00;;;21.90;99.90;;;;;;1929855;73;21143;-95
2022/07/08 09:20:52;;;;;;;2.27;0.90;;;22.00;99.90;;;;;;1918557;75;21211;-95
2022/07/08 09:23:47;;;;;;;3.22;0.90;;;22.00;99.90;;;;;;1918665;75;21504;-94
2022/07/08 09:26:39;;;;;;;1.80;0.82;;;22.00;99.90;;;;;;1920443;75;21064;-94
2022/07/08 09:29:38;;;;;;;2.90;1.00;;;22.00;99.90;;;;;;1918103;75;21100;-92
2022/07/08 09:32:36;;;;;;;8.68;1.02;;;22.10;99.90;;;;;;1919279;75;21050;-94
2022/07/08 09:35:39;;;;;;;4.20;1.00;;;22.20;99.90;;;;;;1937407;74;21128;-93
2022/07/08 09:38:35;;;;;;;2.62;0.90;;;22.30;99.90;;;;;;1932347;74;21294;-96
2022/07/08 09:41:33;;;;;;;1.87;0.80;;;22.30;99.90;;;;;;1919581;74;21156;-92
2022/07/08 09:44:25;;;;;;;2.47;1.27;;;22.40;99.90;;;;;;1918815;75;21121;-94
2022/07/08 09:47:19;;;;;;;1.90;0.85;;;22.40;99.90;;;;;;1911602;74;21364;-93
2022/07/08 09:50:12;;;;;;;2.12;0.88;;;22.50;99.90;;;;;;1924398;73;21083;-92
2022/07/08 09:53:18;;;;;;;1.77;0.80;;;22.50;99.90;;;;;;1917218;73;21150;-92
2022/07/08 09:56:12;;;;;;;3.22;0.90;;;22.60;99.90;;;;;;1917660;74;21151;-92
2022/07/08 09:59:05;;;;;;;1.62;0.85;;;22.60;99.90;;;;;;1924614;73;21113;-91
2022/07/08 10:01:57;;;;;;;2.58;1.00;;;22.60;99.90;;;;;;1918738;73;21095;-91
2022/07/08 10:04:52;;;;;;;1.52;0.90;;;22.60;99.90;;;;;;1922539;73;21125;-89
2022/07/08 10:07:44;;;;;;;3.72;0.98;;;22.70;99.90;;;;;;1915783;73;21736;-89
2022/07/08 10:10:36;;;;;;;3.42;0.95;;;22.90;99.90;;;;;;1904343;74;21110;-89
2022/07/08 10:13:31;;;;;;;2.77;1.00;;;22.90;99.90;;;;;;1918801;73;21108;-90
2022/07/08 10:16:24;;;;;;;3.70;1.00;;;22.90;99.90;;;;;;1910209;74;21085;-85
2022/07/08 10:19:20;;;;;;;2.42;0.90;;;22.90;99.90;;;;;;1910722;74;21162;-89
2022/07/08 10:22:14;;;;;;;1.07;0.90;;;23.00;99.90;;;;;;1907415;74;21651;-88
2022/07/08 10:25:07;;;;;;;3.05;1.00;;;23.10;99.90;;;;;;1906873;74;21666;-88
2022/07/08 10:28:11;;;;;;;2.85;1.32;;;23.20;99.90;;;;;;1917373;73;21098;-88
2022/07/08 10:31:02;;;;;;;2.15;0.90;;;23.20;99.90;;;;;;1918583;73;21106;-87
2022/07/08 10:36:50;;;;;;;1.98;0.95;;;23.30;99.90;;;;;;1939099;72;22255;-87
2022/07/08 10:39:42;;;;;;;1.02;0.70;;;23.30;99.90;;;;;;1890336;75;21591;-86
2022/07/08 10:42:34;;;;;;;3.30;1.10;;;23.40;99.90;;;;;;1901037;74;21102;-85
2022/07/08 10:45:26;;;;;;;2.22;0.80;;;23.40;99.90;;;;;;1895644;75;21135;-84
2022/07/08 10:48:18;;;;;;;4.03;0.80;;;23.60;99.90;;;;;;1886889;75;21125;-86
2022/07/08 10:51:23;;;;;;;4.17;1.10;;;23.70;99.90;;;;;;1906924;75;21059;-85
2022/07/08 10:54:37;;;;;;;3.87;0.80;;;23.70;99.90;;;;;;1912215;75;21205;-85
2022/07/08 10:57:31;;;;;;;3.70;1.02;;;23.90;99.90;;;;;;1905901;75;21150;-84
2022/07/08 11:00:25;;;;;;;1.98;0.60;;;23.90;99.90;;;;;;1884321;76;21106;-85
2022/07/08 11:03:18;;;;;;;2.05;0.70;;;23.80;99.90;;;;;;1891890;75;21051;-85
2022/07/08 11:09:05;;;;;;;6.78;0.82;;;24.00;99.90;;;;;;1943940;72;22102;-84
2022/07/08 11:11:57;;;;;;;2.60;0.80;;;24.10;99.90;;;;;;1892281;75;21550;-85
2022/07/08 11:14:51;;;;;;;1.65;0.70;;;24.20;99.90;;;;;;1873002;75;21114;-84
2022/07/08 11:17:46;;;;;;;2.15;0.90;;;24.20;99.90;;;;;;1904191;75;21075;-85
2022/07/08 11:20:37;;;;;;;1.27;0.70;;;24.20;99.90;;;;;;1905845;73;21221;-85
2022/07/08 11:23:30;;;;;;;1.77;0.80;;;24.40;99.90;;;;;;1878513;73;21069;-85
2022/07/08 11:26:24;;;;;;;3.85;0.82;;;24.40;99.90;;;;;;1884025;75;21158;-84
2022/07/08 11:29:20;;;;;;;4.00;0.80;;;24.60;99.90;;;;;;1884290;75;21164;-84
2022/07/08 11:32:12;;;;;;;3.22;0.70;;;24.60;99.90;;;;;;1900119;73;21091;-88
2022/07/08 11:35:04;;;;;;;1.90;0.68;;;24.70;99.90;;;;;;1871137;75;21355;-90
2022/07/08 11:37:56;;;;;;;1.37;0.60;;;24.70;99.90;;;;;;1892123;75;21161;-89
2022/07/08 11:43:29;;;;;;;2.20;0.93;;;24.90;99.90;;;;;;1926200;72;22199;-88
2022/07/08 11:46:24;;;;;;;0.93;0.65;;;24.80;99.90;;;;;;1876609;75;21589;-89
2022/07/08 11:49:16;;;;;;;2.12;0.80;;;24.90;99.90;;;;;;1885526;75;21134;-91
2022/07/08 11:52:11;;;;;;;4.87;0.78;;;24.90;99.90;;;;;;1876901;75;21157;-90
2022/07/08 11:58:03;;;;;;;2.30;0.65;;;25.10;99.90;;;;;;1949235;72;22357;-91
2022/07/08 12:00:58;;;;;;;7.65;0.72;;;25.20;99.90;;;;;;1918103;75;22303;-89
2022/07/08 12:03:52;;;;;;;2.90;0.60;;;25.20;99.90;;;;;;1917808;75;21106;-90
2022/07/08 12:06:50;;;;;;;2.37;0.80;;;25.30;99.90;;;;;;1917593;75;21102;-91
2022/07/08 12:12:59;;;;;;;1.75;0.80;;;25.50;99.90;;;;;;1945184;72;22142;-91
2022/07/08 12:15:51;;;;;;;4.12;0.72;;;25.50;99.90;;;;;;1910202;75;21486;-91
2022/07/08 12:18:45;;;;;;;9.28;0.90;;;25.70;99.90;;;;;;1915324;75;21075;-91
2022/07/08 12:21:41;;;;;;;2.42;0.80;;;25.70;99.90;;;;;;1915120;75;21071;-93
2022/07/08 12:24:36;;;;;;;1.65;0.65;;;25.80;99.90;;;;;;1910404;75;21143;-91
2022/07/08 12:27:30;;;;;;;3.72;0.75;;;25.80;99.90;;;;;;1909077;75;21089;-93
2022/07/08 12:30:27;;;;;;;8.45;1.20;;;25.80;99.90;;;;;;1908388;75;21058;-91
2022/07/08 12:33:27;;;;;;;4.00;0.72;;;26.00;99.90;;;;;;1914928;75;21101;-92
2022/07/08 12:36:29;;;;;;;1.20;0.60;;;26.10;99.90;;;;;;1911734;75;21568;-91
2022/07/08 12:39:23;;;;;;;4.67;0.65;;;26.20;99.90;;;;;;1896803;75;21094;-92
2022/07/08 12:42:26;;;;;;;3.42;0.60;;;26.10;99.90;;;;;;1913854;75;21107;-92
2022/07/08 12:45:18;;;;;;;3.98;0.98;;;26.00;99.90;;;;;;1905806;75;21046;-93
2022/07/08 12:48:09;;;;;;;2.02;0.70;;;26.10;99.90;;;;;;1906854;75;21168;-93
2022/07/08 12:51:01;;;;;;;1.30;0.60;;;26.20;99.90;;;;;;1908957;75;21155;-92
2022/07/08 12:53:52;;;;;;;3.00;0.70;;;26.30;99.90;;;;;;1873236;76;21149;-93
2022/07/08 12:56:44;;;;;;;5.70;0.82;;;26.30;99.90;;;;;;1894369;75;21099;-92
2022/07/08 12:59:36;;;;;;;2.90;0.80;;;26.40;99.90;;;;;;1879242;75;21086;-91
2022/07/08 13:02:28;;;;;;;2.98;0.70;;;26.50;99.90;;;;;;1908892;75;21088;-91
2022/07/08 13:05:22;;;;;;;3.33;0.90;;;26.50;99.90;;;;;;1910607;75;21106;-91
2022/07/08 13:08:16;;;;;;;3.90;0.78;;;26.50;99.90;;;;;;1915257;75;21079;-91
2022/07/08 13:11:08;;;;;;;5.00;1.10;;;26.50;99.90;;;;;;1912751;75;21122;-91
2022/07/08 13:14:04;;;;;;;1.98;0.60;;;26.60;99.90;;;;;;1906024;75;21156;-91
2022/07/08 13:16:57;;;;;;;4.03;0.70;;;26.60;99.90;;;;;;1912281;75;21051;-93
2022/07/08 13:19:50;;;;;;;2.92;0.90;;;26.60;99.90;;;;;;1915250;75;21175;-92
2022/07/08 13:22:43;;;;;;;3.25;0.70;;;26.60;99.90;;;;;;1873192;76;21086;-92
2022/07/08 13:25:35;;;;;;;1.22;0.53;;;26.60;99.90;;;;;;1903044;75;21047;-92
2022/07/08 13:28:27;;;;;;;2.67;0.80;;;26.80;99.90;;;;;;1841117;77;21538;-92
2022/07/08 13:31:20;;;;;;;2.60;0.70;;;26.90;99.90;;;;;;1878036;76;21085;-91
2022/07/08 13:34:19;;;;;;;4.05;0.80;;;27.00;99.90;;;;;;1877726;76;21146;-92
2022/07/08 13:37:08;;;;;;;3.85;0.80;;;27.00;99.90;;;;;;1869139;76;21063;-92
2022/07/08 13:40:03;;;;;;;5.50;0.82;;;26.90;99.90;;;;;;1911604;75;21150;-91
2022/07/08 13:42:59;;;;;;;2.80;0.90;;;27.00;99.90;;;;;;1904872;75;21124;-92
2022/07/08 13:45:54;;;;;;;2.62;0.70;;;27.10;99.90;;;;;;1914737;75;21101;-93
2022/07/08 13:48:47;;;;;;;0.78;0.70;;;27.20;99.90;;;;;;1873240;77;21079;-92
2022/07/08 13:51:42;;;;;;;1.37;0.75;;;27.30;99.90;;;;;;1882229;75;21070;-93
2022/07/08 13:54:36;;;;;;;2.37;0.70;;;27.50;99.90;;;;;;1905031;75;21613;-91
2022/07/08 13:57:30;;;;;;;1.47;0.60;;;27.70;99.90;;;;;;1905095;75;21118;-91
2022/07/08 14:00:24;;;;;;;6.22;0.70;;;27.70;99.90;;;;;;1905405;75;21220;-91
2022/07/08 14:03:17;;;;;;;4.60;0.90;;;27.80;99.90;;;;;;1884926;75;21124;-93
2022/07/08 14:06:09;;;;;;;1.37;0.68;;;28.00;99.90;;;;;;1907910;75;21042;-91
2022/07/08 14:09:02;;;;;;;0.62;0.53;;;27.90;99.90;;;;;;1905420;75;21172;-91
2022/07/08 14:11:53;;;;;;;1.67;0.80;;;28.20;99.90;;;;;;1884639;75;21156;-90
2022/07/08 14:14:45;;;;;;;2.25;0.98;;;28.30;99.90;;;;;;1887063;75;21102;-91
2022/07/08 14:17:37;;;;;;;3.25;0.90;;;28.40;99.90;;;;;;1903872;75;21030;-92
2022/07/08 14:20:29;;;;;;;4.08;0.80;;;28.30;99.90;;;;;;1904675;75;21126;-92
2022/07/08 14:23:21;;;;;;;2.55;0.85;;;28.50;99.90;;;;;;1904521;75;21050;-93
2022/07/08 14:26:15;;;;;;;4.00;1.15;;;28.70;99.90;;;;;;1904552;75;21136;-92
2022/07/08 14:29:07;;;;;;;1.50;0.82;;;28.60;99.90;;;;;;1883540;76;21036;-91
2022/07/08 14:31:58;;;;;;;1.70;0.80;;;28.80;99.90;;;;;;1867033;77;21133;-92
2022/07/08 14:34:50;;;;;;;1.07;0.70;;;28.90;99.90;;;;;;1911372;75;21171;-92
2022/07/08 14:37:42;;;;;;;1.17;0.57;;;29.00;99.90;;;;;;1909636;75;21058;-93
2022/07/08 14:40:37;;;;;;;2.60;0.72;;;29.00;99.90;;;;;;1885618;75;21074;-92
2022/07/08 14:43:31;;;;;;;1.98;0.70;;;29.10;99.90;;;;;;1905055;75;21116;-92
2022/07/08 14:46:23;;;;;;;3.15;0.95;;;29.10;99.90;;;;;;1905655;75;21078;-91
2022/07/08 14:49:18;;;;;;;2.00;0.55;;;29.50;99.90;;;;;;1907990;75;21067;-90
2022/07/08 14:52:11;;;;;;;1.80;0.60;;;29.50;99.90;;;;;;1872605;77;21177;-91
2022/07/08 14:55:09;;;;;;;3.40;0.88;;;29.50;99.20;;;;;;1884207;75;21131;-91
2022/07/08 14:58:01;;;;;;;2.58;0.72;;;29.80;98.90;;;;;;1874354;75;21141;-92
2022/07/08 15:00:53;;;;;;;0.80;0.60;;;29.90;98.70;;;;;;1870772;77;21570;-92
2022/07/08 15:03:44;;;;;;;3.22;0.70;;;29.70;98.40;;;;;;1890907;75;21122;-90
2022/07/08 15:06:38;;;;;;;2.08;0.68;;;29.60;98.10;;;;;;1909663;75;21097;-92
2022/07/08 15:09:30;;;;;;;1.85;0.70;;;29.80;98.00;;;;;;1911514;75;21109;-91
2022/07/08 15:12:21;;;;;;;0.90;0.70;;;29.80;98.50;;;;;;1903454;75;21157;-90
2022/07/08 15:15:13;;;;;;;2.40;0.80;;;29.70;98.60;;;;;;1864280;76;21083;-91
2022/07/08 15:18:06;;;;;;;1.47;0.60;;;29.50;98.80;;;;;;1893067;75;21125;-93
2022/07/08 15:21:00;;;;;;;2.08;0.93;;;29.60;98.50;;;;;;1893837;75;21116;-92
2022/07/08 15:23:53;;;;;;;1.37;0.70;;;29.50;98.80;;;;;;1911880;75;21120;-91
2022/07/08 15:26:45;;;;;;;5.33;0.90;;;29.60;99.00;;;;;;1910790;75;21142;-92
2022/07/08 15:29:38;;;;;;;3.12;1.25;;;29.90;98.30;;;;;;1906591;74;21514;-91
2022/07/08 15:32:30;;;;;;;1.50;0.95;;;30.00;97.30;;;;;;1868288;76;21580;-92
2022/07/08 15:35:22;;;;;;;1.92;1.00;;;30.10;97.80;;;;;;1907565;75;21083;-91